createdAt,value
2022-08-11T00:00:58.510Z,19.58
2022-08-11T00:01:58.760Z,19.56
2022-08-11T00:02:58.820Z,19.54
2022-08-11T00:03:58.866Z,19.52
2022-08-11T00:04:58.969Z,19.50
2022-08-11T00:05:59.089Z,19.49
2022-08-11T00:06:59.269Z,19.47
2022-08-11T00:07:59.441Z,19.45
2022-08-11T00:08:59.439Z,19.43
2022-08-11T00:09:59.548Z,19.41
2022-08-11T00:10:59.649Z,19.38
2022-08-11T00:11:59.907Z,19.36
2022-08-11T00:12:59.891Z,19.33
2022-08-11T00:14:00.027Z,19.31
2022-08-11T00:15:00.184Z,19.28
2022-08-11T00:16:00.347Z,19.26
2022-08-11T00:17:00.477Z,19.23
2022-08-11T00:18:00.586Z,19.21
2022-08-11T00:19:00.705Z,19.19
2022-08-11T00:20:12.750Z,19.17
2022-08-11T00:21:01.926Z,19.14
2022-08-11T00:22:04.707Z,19.11
2022-08-11T00:23:02.239Z,19.09
2022-08-11T00:24:01.269Z,19.06
2022-08-11T00:25:02.559Z,19.03
2022-08-11T00:26:01.498Z,19.01
2022-08-11T00:27:01.706Z,18.98
2022-08-11T00:28:01.837Z,18.96
2022-08-11T00:29:01.915Z,18.93
2022-08-11T00:30:02.046Z,18.91
2022-08-11T00:31:04.260Z,18.89
2022-08-11T00:32:02.224Z,18.87
2022-08-11T00:33:02.522Z,18.84
2022-08-11T00:34:02.524Z,18.82
2022-08-11T00:35:55.472Z,18.80
2022-08-11T00:36:03.763Z,18.78
2022-08-11T00:37:02.844Z,18.76
2022-08-11T00:38:03.114Z,18.74
2022-08-11T00:39:03.188Z,18.73
2022-08-11T00:40:03.379Z,18.71
2022-08-11T00:41:03.283Z,18.70
2022-08-11T00:42:03.383Z,18.68
2022-08-11T00:43:03.494Z,18.66
2022-08-11T00:44:03.742Z,18.64
2022-08-11T00:45:03.764Z,18.62
2022-08-11T00:46:03.863Z,18.60
2022-08-11T00:47:03.972Z,18.58
2022-08-11T00:48:04.082Z,18.56
2022-08-11T00:49:04.272Z,18.54
2022-08-11T00:50:04.392Z,18.52
2022-08-11T00:51:04.440Z,18.49
2022-08-11T00:52:06.435Z,18.46
2022-08-11T00:53:04.672Z,18.44
2022-08-11T00:54:04.880Z,18.41
2022-08-11T00:55:04.880Z,18.39
2022-08-11T00:56:04.984Z,18.38
2022-08-11T00:57:05.082Z,18.35
2022-08-11T00:58:06.202Z,18.33
2022-08-11T00:59:05.470Z,18.31
2022-08-11T01:00:06.531Z,18.29
2022-08-11T01:01:05.629Z,18.26
2022-08-11T01:02:05.670Z,18.23
2022-08-11T01:03:05.780Z,18.22
2022-08-11T01:04:05.970Z,18.20
2022-08-11T01:05:06.141Z,18.19
2022-08-11T01:06:08.095Z,18.18
2022-08-11T01:07:06.257Z,18.16
2022-08-11T01:08:06.383Z,18.15
2022-08-11T01:09:06.579Z,18.14
2022-08-11T01:10:07.454Z,18.13
2022-08-11T01:11:06.722Z,18.11
2022-08-11T01:12:06.829Z,18.10
2022-08-11T01:13:08.561Z,18.08
2022-08-11T01:14:07.109Z,18.06
2022-08-11T01:15:07.296Z,18.04
2022-08-11T01:16:08.917Z,18.02
2022-08-11T01:17:09.755Z,18.00
2022-08-11T01:18:07.518Z,17.97
2022-08-11T01:19:07.677Z,17.95
2022-08-11T01:20:47.431Z,17.93
2022-08-11T01:21:08.896Z,17.91
2022-08-11T01:22:08.026Z,17.88
2022-08-11T01:23:08.178Z,17.86
2022-08-11T01:24:08.317Z,17.83
2022-08-11T01:25:08.461Z,17.81
2022-08-11T01:26:08.675Z,17.79
2022-08-11T01:27:19.030Z,17.77
2022-08-11T01:28:09.784Z,17.75
2022-08-11T01:29:08.933Z,17.73
2022-08-11T01:30:09.115Z,17.72
2022-08-11T01:31:09.274Z,17.71
2022-08-11T01:32:09.265Z,17.69
2022-08-11T01:33:09.412Z,17.68
2022-08-11T01:34:09.563Z,17.67
2022-08-11T01:35:09.754Z,17.65
2022-08-11T01:36:09.807Z,17.64
2022-08-11T01:37:09.914Z,17.62
2022-08-11T01:38:10.024Z,17.60
2022-08-11T01:39:10.257Z,17.58
2022-08-11T01:40:10.933Z,17.56
2022-08-11T01:41:10.463Z,17.54
2022-08-11T01:42:10.573Z,17.53
2022-08-11T01:43:10.682Z,17.51
2022-08-11T01:44:13.085Z,17.50
2022-08-11T01:45:10.876Z,17.49
2022-08-11T01:46:11.103Z,17.47
2022-08-11T01:47:11.144Z,17.46
2022-08-11T01:48:11.233Z,17.44
2022-08-11T01:50:07.106Z,17.43
2022-08-11T01:50:12.602Z,17.41
2022-08-11T01:51:16.812Z,17.39
2022-08-11T01:52:12.761Z,17.37
2022-08-11T01:53:11.841Z,17.35
2022-08-11T01:54:12.012Z,17.34
2022-08-11T01:55:12.211Z,17.33
2022-08-11T01:56:12.279Z,17.32
2022-08-11T01:57:12.381Z,17.32
2022-08-11T01:58:12.501Z,17.31
2022-08-11T01:59:12.601Z,17.30
2022-08-11T02:00:12.761Z,17.28
2022-08-11T02:01:12.924Z,17.27
2022-08-11T02:02:20.550Z,17.26
2022-08-11T02:03:14.022Z,17.24
2022-08-11T02:04:15.649Z,17.22
2022-08-11T02:05:13.662Z,17.20
2022-08-11T02:06:13.387Z,17.19
2022-08-11T02:07:13.480Z,17.17
2022-08-11T02:08:13.637Z,17.16
2022-08-11T02:09:13.789Z,17.14
2022-08-11T02:10:14.006Z,17.13
2022-08-11T02:11:14.157Z,17.10
2022-08-11T02:12:14.095Z,17.08
2022-08-11T02:13:14.241Z,17.06
2022-08-11T02:14:14.409Z,17.04
2022-08-11T02:15:14.798Z,17.03
2022-08-11T02:16:14.636Z,17.01
2022-08-11T02:17:14.729Z,17.00
2022-08-11T02:18:14.877Z,16.98
2022-08-11T02:19:15.018Z,16.97
2022-08-11T02:20:15.323Z,16.95
2022-08-11T02:21:15.429Z,16.94
2022-08-11T02:22:15.446Z,16.92
2022-08-11T02:23:58.751Z,16.90
2022-08-11T02:24:16.675Z,16.87
2022-08-11T02:25:17.097Z,16.85
2022-08-11T02:26:15.964Z,16.83
2022-08-11T02:27:16.057Z,16.81
2022-08-11T02:28:16.167Z,16.80
2022-08-11T02:29:16.265Z,16.78
2022-08-11T02:30:16.419Z,16.76
2022-08-11T02:32:11.076Z,16.74
2022-08-11T02:32:33.800Z,16.72
2022-08-11T02:33:17.694Z,16.70
2022-08-11T02:34:16.775Z,16.68
2022-08-11T02:35:17.067Z,16.66
2022-08-11T02:36:17.069Z,16.64
2022-08-11T02:37:22.045Z,16.63
2022-08-11T02:38:18.304Z,16.61
2022-08-11T02:39:17.466Z,16.59
2022-08-11T02:40:17.524Z,16.57
2022-08-11T02:41:17.713Z,16.56
2022-08-11T02:42:32.025Z,16.55
2022-08-11T02:43:18.874Z,16.54
2022-08-11T02:44:18.003Z,16.52
2022-08-11T02:45:18.174Z,16.51
2022-08-11T02:46:18.723Z,16.50
2022-08-11T02:47:18.422Z,16.49
2022-08-11T02:48:18.523Z,16.48
2022-08-11T02:49:18.622Z,16.47
2022-08-11T02:50:18.713Z,16.45
2022-08-11T02:51:22.111Z,16.44
2022-08-11T02:52:19.141Z,16.42
2022-08-11T02:53:19.080Z,16.41
2022-08-11T02:54:19.211Z,16.40
2022-08-11T02:55:44.664Z,16.39
2022-08-11T02:56:20.511Z,16.38
2022-08-11T02:57:19.680Z,16.36
2022-08-11T02:58:19.877Z,16.35
2022-08-11T02:59:20.839Z,16.33
2022-08-11T03:00:19.984Z,16.30
2022-08-11T03:01:20.141Z,16.28
2022-08-11T03:02:20.339Z,16.27
2022-08-11T03:03:20.378Z,16.25
2022-08-11T03:04:20.441Z,16.24
2022-08-11T03:05:20.519Z,16.23
2022-08-11T03:06:20.658Z,16.23
2022-08-11T03:07:29.130Z,16.23
2022-08-11T03:08:21.898Z,16.22
2022-08-11T03:09:21.020Z,16.21
2022-08-11T03:10:21.171Z,16.20
2022-08-11T03:11:21.317Z,16.19
2022-08-11T03:12:21.420Z,16.18
2022-08-11T03:13:21.539Z,16.17
2022-08-11T03:14:21.649Z,16.16
2022-08-11T03:15:21.737Z,16.15
2022-08-11T03:16:21.856Z,16.13
2022-08-11T03:17:21.937Z,16.12
2022-08-11T03:18:22.208Z,16.10
2022-08-11T03:19:22.306Z,16.09
2022-08-11T03:20:22.356Z,16.08
2022-08-11T03:21:23.580Z,16.07
2022-08-11T03:22:22.566Z,16.06
2022-08-11T03:23:22.716Z,16.04
2022-08-11T03:24:22.976Z,16.03
2022-08-11T03:25:22.921Z,16.01
2022-08-11T03:26:23.055Z,16.00
2022-08-11T03:27:23.195Z,15.98
2022-08-11T03:28:23.310Z,15.98
2022-08-11T03:29:25.224Z,15.97
2022-08-11T03:30:23.538Z,15.96
2022-08-11T03:31:23.660Z,15.94
2022-08-11T03:32:23.735Z,15.92
2022-08-11T03:33:23.874Z,15.91
2022-08-11T03:34:24.086Z,15.90
2022-08-11T03:35:24.116Z,15.90
2022-08-11T03:36:24.335Z,15.89
2022-08-11T03:37:24.394Z,15.88
2022-08-11T03:38:24.523Z,15.87
2022-08-11T03:39:25.695Z,15.86
2022-08-11T03:40:24.721Z,15.85
2022-08-11T03:42:01.281Z,15.84
2022-08-11T03:42:25.950Z,15.82
2022-08-11T03:43:25.197Z,15.81
2022-08-11T03:44:25.252Z,15.81
2022-08-11T03:45:25.414Z,15.80
2022-08-11T03:46:25.524Z,15.80
2022-08-11T03:47:25.605Z,15.79
2022-08-11T03:48:25.734Z,15.79
2022-08-11T03:49:25.872Z,15.78
2022-08-11T03:50:26.693Z,15.77
2022-08-11T03:51:26.146Z,15.76
2022-08-11T03:52:27.310Z,15.75
2022-08-11T03:53:26.399Z,15.74
2022-08-11T03:54:26.510Z,15.73
2022-08-11T03:55:26.659Z,15.73
2022-08-11T03:56:26.825Z,15.72
2022-08-11T03:57:26.932Z,15.72
2022-08-11T03:58:27.087Z,15.72
2022-08-11T03:59:27.180Z,15.71
2022-08-11T04:00:27.327Z,15.70
2022-08-11T04:01:27.564Z,15.69
2022-08-11T04:02:27.526Z,15.68
2022-08-11T04:03:31.423Z,15.67
2022-08-11T04:04:27.788Z,15.65
2022-08-11T04:05:27.879Z,15.64
2022-08-11T04:06:28.093Z,15.64
2022-08-11T04:07:28.118Z,15.64
2022-08-11T04:08:34.233Z,15.63
2022-08-11T04:09:29.387Z,15.62
2022-08-11T04:10:28.498Z,15.60
2022-08-11T04:11:28.667Z,15.60
2022-08-11T04:12:36.744Z,15.59
2022-08-11T04:13:29.843Z,15.58
2022-08-11T04:14:28.915Z,15.57
2022-08-11T04:15:29.066Z,15.55
2022-08-11T04:16:29.254Z,15.54
2022-08-11T04:17:29.430Z,15.54
2022-08-11T04:18:29.397Z,15.53
2022-08-11T04:19:29.632Z,15.53
2022-08-11T04:20:29.666Z,15.52
2022-08-11T04:21:29.826Z,15.52
2022-08-11T04:22:29.998Z,15.51
2022-08-11T04:24:33.096Z,15.51
2022-08-11T04:24:38.701Z,15.50
2022-08-11T04:25:31.264Z,15.48
2022-08-11T04:26:30.416Z,15.47
2022-08-11T04:27:37.707Z,15.46
2022-08-11T04:28:31.593Z,15.45
2022-08-11T04:29:36.381Z,15.45
2022-08-11T04:30:31.847Z,15.44
2022-08-11T04:31:44.033Z,15.44
2022-08-11T04:32:32.066Z,15.45
2022-08-11T04:33:34.365Z,15.45
2022-08-11T04:34:31.361Z,15.45
2022-08-11T04:35:31.390Z,15.45
2022-08-11T04:36:31.555Z,15.46
2022-08-11T04:37:31.772Z,15.46
2022-08-11T04:38:31.772Z,15.46
2022-08-11T04:39:31.966Z,15.47
2022-08-11T04:40:31.991Z,15.47
2022-08-11T04:41:32.172Z,15.47
2022-08-11T04:42:32.375Z,15.47
2022-08-11T04:43:32.382Z,15.47
2022-08-11T04:44:32.659Z,15.47
2022-08-11T04:45:32.582Z,15.49
2022-08-11T04:46:32.729Z,15.50
2022-08-11T04:47:32.878Z,15.53
2022-08-11T04:48:33.931Z,15.56
2022-08-11T04:49:33.668Z,15.60
2022-08-11T04:50:33.297Z,15.63
2022-08-11T04:51:33.314Z,15.67
2022-08-11T04:52:36.037Z,15.70
2022-08-11T04:53:34.518Z,15.73
2022-08-11T04:54:33.690Z,15.76
2022-08-11T04:55:33.859Z,15.79
2022-08-11T04:56:33.868Z,15.82
2022-08-11T04:57:34.024Z,15.86
2022-08-11T04:58:34.138Z,15.89
2022-08-11T04:59:34.310Z,15.92
2022-08-11T05:00:34.426Z,15.94
2022-08-11T05:01:37.394Z,15.97
2022-08-11T05:02:34.759Z,15.99
2022-08-11T05:03:34.766Z,16.01
2022-08-11T05:04:34.878Z,16.03
2022-08-11T05:05:34.961Z,16.05
2022-08-11T05:06:35.157Z,16.05
2022-08-11T05:07:35.361Z,16.05
2022-08-11T05:08:35.388Z,16.07
2022-08-11T05:09:35.466Z,16.10
2022-08-11T05:10:39.950Z,16.15
2022-08-11T05:11:37.666Z,16.19
2022-08-11T05:12:35.806Z,16.22
2022-08-11T05:13:35.895Z,16.25
2022-08-11T05:14:36.065Z,16.29
2022-08-11T05:15:42.417Z,16.33
2022-08-11T05:16:37.374Z,16.36
2022-08-11T05:17:36.409Z,16.39
2022-08-11T05:18:36.535Z,16.43
2022-08-11T05:19:36.634Z,16.46
2022-08-11T05:20:36.821Z,16.50
2022-08-11T05:21:45.540Z,16.55
2022-08-11T05:22:38.209Z,16.61
2022-08-11T05:23:37.094Z,16.66
2022-08-11T05:24:37.186Z,16.72
2022-08-11T05:26:42.908Z,16.78
2022-08-11T05:26:46.017Z,16.84
2022-08-11T05:27:38.612Z,16.90
2022-08-11T05:28:37.863Z,16.95
2022-08-11T05:29:37.853Z,17.02
2022-08-11T05:30:38.003Z,17.09
2022-08-11T05:31:38.112Z,17.16
2022-08-11T05:32:38.463Z,17.23
2022-08-11T05:33:38.502Z,17.30
2022-08-11T05:34:38.491Z,17.37
2022-08-11T05:36:00.347Z,17.43
2022-08-11T05:36:39.772Z,17.50
2022-08-11T05:37:38.910Z,17.56
2022-08-11T05:38:39.232Z,17.63
2022-08-11T05:39:39.153Z,17.70
2022-08-11T05:40:39.243Z,17.76
2022-08-11T05:41:39.341Z,17.82
2022-08-11T05:42:39.572Z,17.88
2022-08-11T05:43:39.730Z,17.93
2022-08-11T05:44:40.710Z,17.97
2022-08-11T05:45:57.263Z,18.01
2022-08-11T05:46:40.980Z,18.05
2022-08-11T05:47:40.150Z,18.11
2022-08-11T05:48:40.339Z,18.18
2022-08-11T05:49:40.350Z,18.26
2022-08-11T05:50:40.449Z,18.35
2022-08-11T05:51:55.024Z,18.44
2022-08-11T05:52:42.032Z,18.52
2022-08-11T05:53:46.130Z,18.61
2022-08-11T05:54:42.112Z,18.70
2022-08-11T05:56:01.940Z,18.80
2022-08-11T05:56:42.208Z,18.90
2022-08-11T05:57:51.382Z,19.01
2022-08-11T05:58:43.167Z,19.12
2022-08-11T05:59:41.598Z,19.22
2022-08-11T06:00:41.758Z,19.33
2022-08-11T06:01:41.869Z,19.44
2022-08-11T06:02:41.953Z,19.55
2022-08-11T06:03:42.057Z,19.66
2022-08-11T06:04:43.187Z,19.76
2022-08-11T06:05:43.593Z,19.86
2022-08-11T06:06:45.512Z,19.96
2022-08-11T06:07:48.705Z,20.06
2022-08-11T06:08:43.667Z,20.15
2022-08-11T06:09:42.767Z,20.24
2022-08-11T06:10:42.958Z,20.34
2022-08-11T06:11:44.957Z,20.43
2022-08-11T06:12:43.119Z,20.51
2022-08-11T06:13:43.214Z,20.60
2022-08-11T06:14:43.355Z,20.69
2022-08-11T06:15:43.657Z,20.78
2022-08-11T06:16:43.688Z,20.88
2022-08-11T06:17:43.786Z,20.97
2022-08-11T06:18:43.895Z,21.06
2022-08-11T06:19:44.015Z,21.14
2022-08-11T06:20:44.215Z,21.22
2022-08-11T06:21:44.355Z,21.31
2022-08-11T06:22:44.415Z,21.38
2022-08-11T06:23:44.514Z,21.44
2022-08-11T06:24:44.694Z,21.50
2022-08-11T06:25:44.828Z,21.58
2022-08-11T06:27:09.032Z,21.69
2022-08-11T06:27:46.020Z,21.79
2022-08-11T06:28:45.139Z,21.88
2022-08-11T06:29:48.018Z,21.97
2022-08-11T06:30:46.443Z,22.04
2022-08-11T06:31:45.486Z,22.11
2022-08-11T06:32:45.583Z,22.18
2022-08-11T06:33:45.696Z,22.25
2022-08-11T06:34:45.794Z,22.32
2022-08-11T06:35:46.154Z,22.39
2022-08-11T06:36:46.053Z,22.47
2022-08-11T06:37:46.173Z,22.55
2022-08-11T06:38:46.285Z,22.66
2022-08-11T06:39:46.463Z,22.76
2022-08-11T06:40:46.751Z,22.85
2022-08-11T06:41:46.683Z,22.94
2022-08-11T06:42:46.744Z,23.01
2022-08-11T06:43:55.649Z,23.05
2022-08-11T06:44:47.972Z,23.07
2022-08-11T06:45:47.121Z,23.11
2022-08-11T06:46:47.183Z,23.19
2022-08-11T06:47:47.444Z,23.30
2022-08-11T06:48:47.422Z,23.42
2022-08-11T06:49:47.522Z,23.53
2022-08-11T06:50:47.673Z,23.62
2022-08-11T06:51:47.792Z,23.71
2022-08-11T06:52:48.153Z,23.79
2022-08-11T06:54:03.103Z,23.87
2022-08-11T06:54:49.153Z,23.93
2022-08-11T06:55:57.706Z,23.97
2022-08-11T06:56:57.498Z,24.00
2022-08-11T06:57:49.581Z,24.03
2022-08-11T06:58:48.732Z,24.05
2022-08-11T06:59:48.841Z,24.09
2022-08-11T07:00:48.950Z,24.17
2022-08-11T07:01:49.655Z,24.28
2022-08-11T07:02:49.195Z,24.38
2022-08-11T07:03:49.304Z,24.46
2022-08-11T07:04:49.428Z,24.55
2022-08-11T07:05:49.551Z,24.65
2022-08-11T07:06:50.436Z,24.74
2022-08-11T07:07:49.791Z,24.75
2022-08-11T07:08:49.953Z,24.72
2022-08-11T07:09:50.061Z,24.73
2022-08-11T07:10:50.160Z,24.77
2022-08-11T07:11:50.372Z,24.83
2022-08-11T07:12:50.533Z,24.89
2022-08-11T07:13:50.532Z,24.97
2022-08-11T07:14:50.632Z,25.03
2022-08-11T07:16:11.010Z,25.02
2022-08-11T07:16:51.912Z,24.98
2022-08-11T07:17:51.101Z,24.98
2022-08-11T07:18:51.258Z,25.06
2022-08-11T07:19:51.259Z,25.19
2022-08-11T07:20:52.375Z,25.33
2022-08-11T07:22:01.757Z,25.49
2022-08-11T07:22:52.800Z,25.67
2022-08-11T07:23:51.781Z,25.77
2022-08-11T07:24:59.474Z,25.80
2022-08-11T07:25:53.038Z,25.84
2022-08-11T07:26:52.230Z,25.91
2022-08-11T07:27:52.340Z,25.95
2022-08-11T07:28:52.491Z,25.99
2022-08-11T07:29:52.588Z,26.07
2022-08-11T07:30:54.099Z,26.15
2022-08-11T07:31:52.870Z,26.21
2022-08-11T07:32:52.966Z,26.30
2022-08-11T07:34:07.557Z,26.36
2022-08-11T07:34:54.230Z,26.33
2022-08-11T07:35:53.311Z,26.25
2022-08-11T07:36:53.491Z,26.20
2022-08-11T07:38:01.664Z,26.17
2022-08-11T07:38:54.776Z,26.15
2022-08-11T07:39:53.832Z,26.15
2022-08-11T07:40:53.929Z,26.15
2022-08-11T07:41:54.058Z,26.20
2022-08-11T07:42:54.165Z,26.28
2022-08-11T07:43:54.269Z,26.37
2022-08-11T07:44:54.442Z,26.46
2022-08-11T07:45:54.497Z,26.57
2022-08-11T07:46:54.608Z,26.70
2022-08-11T07:47:54.706Z,26.85
2022-08-11T07:48:55.049Z,27.00
2022-08-11T07:49:55.002Z,27.06
2022-08-11T07:50:56.187Z,27.04
2022-08-11T07:51:55.231Z,27.03
2022-08-11T07:52:55.337Z,27.05
2022-08-11T07:53:58.344Z,27.10
2022-08-11T07:54:56.577Z,27.15
2022-08-11T07:55:55.736Z,27.13
2022-08-11T07:57:09.332Z,27.09
2022-08-11T07:58:15.348Z,27.07
2022-08-11T07:59:04.279Z,27.12
2022-08-11T07:59:58.587Z,27.14
2022-08-11T08:01:01.076Z,27.13
2022-08-11T08:01:56.577Z,27.16
2022-08-11T08:02:56.617Z,27.22
2022-08-11T08:03:56.727Z,27.30
2022-08-11T08:04:56.937Z,27.36
2022-08-11T08:05:56.951Z,27.40
2022-08-11T08:06:57.046Z,27.46
2022-08-11T08:07:57.174Z,27.56
2022-08-11T08:08:57.277Z,27.68
2022-08-11T08:09:57.526Z,27.85
2022-08-11T08:10:57.516Z,28.03
2022-08-11T08:11:57.677Z,28.20
2022-08-11T08:12:57.766Z,28.40
2022-08-11T08:13:57.914Z,28.58
2022-08-11T08:14:58.153Z,28.68
2022-08-11T08:15:58.216Z,28.73
2022-08-11T08:16:58.377Z,28.83
2022-08-11T08:18:09.629Z,28.90
2022-08-11T08:18:59.536Z,28.84
2022-08-11T08:19:58.696Z,28.71
2022-08-11T08:20:58.793Z,28.60
2022-08-11T08:22:10.921Z,28.53
2022-08-11T08:23:00.065Z,28.52
2022-08-11T08:23:59.196Z,28.61
2022-08-11T08:24:59.362Z,28.77
2022-08-11T08:25:59.455Z,28.89
2022-08-11T08:27:00.155Z,28.95
2022-08-11T08:27:59.753Z,29.04
2022-08-11T08:28:59.901Z,29.19
2022-08-11T08:30:00.053Z,29.35
2022-08-11T08:31:00.147Z,29.50
2022-08-11T08:32:00.381Z,29.64
2022-08-11T08:33:00.438Z,29.69
2022-08-11T08:34:00.544Z,29.64
2022-08-11T08:35:00.669Z,29.60
2022-08-11T08:36:00.777Z,29.58
2022-08-11T08:37:01.026Z,29.57
2022-08-11T08:38:01.061Z,29.50
2022-08-11T08:39:01.154Z,29.42
2022-08-11T08:40:01.321Z,29.39
2022-08-11T08:41:01.433Z,29.39
2022-08-11T08:42:01.554Z,29.44
2022-08-11T08:43:01.762Z,29.43
2022-08-11T08:44:21.121Z,29.36
2022-08-11T08:45:02.900Z,29.30
2022-08-11T08:46:02.001Z,29.31
2022-08-11T08:47:02.173Z,29.40
2022-08-11T08:48:02.382Z,29.53
2022-08-11T08:49:02.392Z,29.65
2022-08-11T08:50:02.606Z,29.74
2022-08-11T08:51:02.631Z,29.76
2022-08-11T08:52:26.307Z,29.77
2022-08-11T08:53:03.870Z,29.79
2022-08-11T08:54:02.971Z,29.83
2022-08-11T08:55:03.141Z,29.90
2022-08-11T08:56:03.397Z,29.98
2022-08-11T08:57:03.354Z,30.07
2022-08-11T08:58:03.450Z,30.17
2022-08-11T08:59:03.619Z,30.29
2022-08-11T09:00:03.800Z,30.40
2022-08-11T09:01:03.871Z,30.35
2022-08-11T09:02:03.958Z,30.15
2022-08-11T09:03:22.882Z,30.00
2022-08-11T09:04:11.466Z,29.94
2022-08-11T09:05:05.435Z,29.93
2022-08-11T09:06:04.500Z,29.98
2022-08-11T09:07:04.659Z,30.03
2022-08-11T09:08:04.668Z,30.09
2022-08-11T09:09:04.775Z,30.12
2022-08-11T09:10:04.903Z,30.11
2022-08-11T09:11:05.109Z,30.10
2022-08-11T09:12:05.139Z,30.12
2022-08-11T09:13:05.239Z,30.17
2022-08-11T09:14:08.393Z,30.28
2022-08-11T09:15:06.537Z,30.40
2022-08-11T09:16:05.628Z,30.44
2022-08-11T09:17:05.786Z,30.44
2022-08-11T09:18:05.885Z,30.50
2022-08-11T09:19:06.031Z,30.58
2022-08-11T09:20:06.197Z,30.63
2022-08-11T09:21:06.318Z,30.59
2022-08-11T09:22:06.500Z,30.54
2022-08-11T09:24:12.822Z,30.68
2022-08-11T09:25:07.765Z,30.74
2022-08-11T09:26:06.894Z,30.71
2022-08-11T09:27:07.026Z,30.63
2022-08-11T09:28:07.113Z,30.62
2022-08-11T09:29:07.278Z,30.61
2022-08-11T09:30:07.382Z,30.63
2022-08-11T09:31:07.564Z,30.70
2022-08-11T09:32:07.608Z,30.80
2022-08-11T09:33:07.731Z,30.93
2022-08-11T09:34:07.805Z,31.09
2022-08-11T09:35:07.955Z,31.23
2022-08-11T09:36:08.766Z,31.34
2022-08-11T09:37:08.286Z,31.40
2022-08-11T09:38:08.403Z,31.40
2022-08-11T09:39:08.563Z,31.28
2022-08-11T09:40:08.603Z,31.12
2022-08-11T09:41:08.713Z,31.02
2022-08-11T09:42:11.385Z,30.92
2022-08-11T09:43:09.932Z,30.78
2022-08-11T09:44:09.079Z,30.71
2022-08-11T09:45:09.212Z,30.76
2022-08-11T09:46:09.304Z,30.86
2022-08-11T09:47:09.422Z,30.95
2022-08-11T09:48:09.534Z,31.02
2022-08-11T09:49:09.611Z,31.07
2022-08-11T09:50:09.832Z,31.09
2022-08-11T09:51:09.910Z,31.10
2022-08-11T09:52:10.030Z,31.12
2022-08-11T09:53:36.306Z,31.13
2022-08-11T09:54:11.240Z,31.18
2022-08-11T09:55:10.631Z,31.27
2022-08-11T09:56:10.510Z,31.24
2022-08-11T09:57:10.627Z,31.09
2022-08-11T09:58:10.830Z,30.89
2022-08-11T09:59:10.890Z,30.76
2022-08-11T10:00:13.106Z,30.74
2022-08-11T10:01:11.168Z,30.79
2022-08-11T10:02:11.249Z,30.89
2022-08-11T10:03:11.418Z,31.05
2022-08-11T10:04:11.470Z,31.21
2022-08-11T10:05:11.598Z,31.34
2022-08-11T10:06:11.716Z,31.48
2022-08-11T10:07:11.827Z,31.55
2022-08-11T10:08:12.039Z,31.54
2022-08-11T10:09:12.187Z,31.52
2022-08-11T10:10:12.188Z,31.54
2022-08-11T10:11:12.347Z,31.56
2022-08-11T10:12:12.476Z,31.51
2022-08-11T10:13:44.073Z,31.35
2022-08-11T10:14:33.076Z,31.11
2022-08-11T10:15:13.818Z,30.95
2022-08-11T10:16:15.764Z,30.87
2022-08-11T10:17:13.025Z,30.76
2022-08-11T10:18:13.265Z,30.67
2022-08-11T10:19:13.385Z,30.67
2022-08-11T10:20:13.395Z,30.71
2022-08-11T10:21:13.541Z,30.82
2022-08-11T10:22:13.659Z,30.89
2022-08-11T10:23:13.773Z,30.84
2022-08-11T10:24:13.953Z,30.75
2022-08-11T10:25:13.992Z,30.66
2022-08-11T10:26:14.116Z,30.62
2022-08-11T10:27:14.212Z,30.68
2022-08-11T10:28:30.521Z,30.73
2022-08-11T10:29:15.880Z,30.71
2022-08-11T10:30:14.582Z,30.71
2022-08-11T10:31:14.700Z,30.70
2022-08-11T10:32:14.821Z,30.66
2022-08-11T10:33:18.985Z,30.66
2022-08-11T10:34:16.080Z,30.70
2022-08-11T10:35:15.160Z,30.74
2022-08-11T10:36:16.694Z,30.75
2022-08-11T10:37:15.429Z,30.66
2022-08-11T10:38:15.519Z,30.57
2022-08-11T10:39:15.898Z,30.60
2022-08-11T10:40:15.905Z,30.66
2022-08-11T10:41:15.879Z,30.75
2022-08-11T10:42:25.807Z,30.88
2022-08-11T10:44:01.208Z,31.03
2022-08-11T10:44:17.369Z,31.14
2022-08-11T10:45:16.408Z,31.15
2022-08-11T10:46:16.514Z,31.10
2022-08-11T10:47:16.640Z,31.07
2022-08-11T10:48:16.724Z,31.12
2022-08-11T10:49:16.841Z,31.24
2022-08-11T10:50:17.175Z,31.35
2022-08-11T10:51:17.066Z,31.41
2022-08-11T10:52:18.186Z,31.44
2022-08-11T10:53:17.344Z,31.41
2022-08-11T10:54:17.443Z,31.34
2022-08-11T10:55:17.705Z,31.25
2022-08-11T10:56:17.795Z,31.17
2022-08-11T10:57:17.844Z,31.08
2022-08-11T10:58:18.014Z,30.98
2022-08-11T10:59:18.104Z,30.96
2022-08-11T11:00:18.313Z,31.01
2022-08-11T11:01:18.467Z,31.06
2022-08-11T11:02:18.492Z,31.09
2022-08-11T11:03:23.036Z,31.11
2022-08-11T11:04:19.702Z,31.13
2022-08-11T11:05:18.865Z,31.16
2022-08-11T11:06:29.180Z,31.22
2022-08-11T11:07:20.274Z,31.26
2022-08-11T11:08:19.258Z,31.28
2022-08-11T11:09:19.384Z,31.24
2022-08-11T11:10:19.460Z,31.13
2022-08-11T11:11:19.822Z,31.02
2022-08-11T11:12:19.780Z,30.81
2022-08-11T11:13:19.897Z,30.58
2022-08-11T11:14:20.009Z,30.48
2022-08-11T11:15:20.101Z,30.48
2022-08-11T11:16:20.298Z,30.46
2022-08-11T11:17:20.517Z,30.50
2022-08-11T11:18:20.458Z,30.62
2022-08-11T11:19:20.610Z,30.78
2022-08-11T11:20:37.421Z,30.99
2022-08-11T11:21:21.968Z,31.22
2022-08-11T11:22:21.027Z,31.44
2022-08-11T11:23:21.119Z,31.62
2022-08-11T11:24:21.218Z,31.78
2022-08-11T11:25:21.325Z,31.90
2022-08-11T11:26:27.217Z,32.03
2022-08-11T11:27:22.604Z,32.17
2022-08-11T11:28:21.705Z,32.28
2022-08-11T11:29:21.867Z,32.33
2022-08-11T11:30:21.904Z,32.31
2022-08-11T11:31:22.004Z,32.17
2022-08-11T11:32:22.333Z,31.99
2022-08-11T11:33:22.273Z,31.84
2022-08-11T11:34:22.482Z,31.75
2022-08-11T11:35:22.502Z,31.65
2022-08-11T11:36:22.612Z,31.61
2022-08-11T11:37:22.843Z,31.62
2022-08-11T11:38:22.831Z,31.59
2022-08-11T11:39:23.002Z,31.53
2022-08-11T11:40:23.184Z,31.52
2022-08-11T11:41:24.171Z,31.56
2022-08-11T11:42:23.290Z,31.62
2022-08-11T11:43:23.451Z,31.72
2022-08-11T11:44:23.510Z,31.88
2022-08-11T11:45:24.351Z,32.05
2022-08-11T11:46:27.113Z,32.12
2022-08-11T11:47:24.848Z,32.08
2022-08-11T11:48:24.019Z,32.04
2022-08-11T11:50:24.238Z,31.73
2022-08-11T11:51:24.367Z,31.56
2022-08-11T11:52:24.477Z,31.55
2022-08-11T11:53:24.607Z,31.66
2022-08-11T11:54:24.705Z,31.79
2022-08-11T11:55:24.818Z,31.92
2022-08-11T11:56:25.555Z,32.04
2022-08-11T11:57:25.087Z,32.17
2022-08-11T11:58:25.438Z,32.32
2022-08-11T11:59:25.337Z,32.45
2022-08-11T12:00:25.447Z,32.45
2022-08-11T12:01:26.577Z,32.32
2022-08-11T12:02:25.834Z,32.23
2022-08-11T12:03:25.863Z,32.20
2022-08-11T12:04:26.026Z,32.22
2022-08-11T12:05:26.076Z,32.17
2022-08-11T12:06:26.175Z,32.00
2022-08-11T12:07:26.305Z,31.84
2022-08-11T12:08:27.899Z,31.78
2022-08-11T12:09:26.616Z,31.84
2022-08-11T12:10:26.674Z,32.00
2022-08-11T12:11:26.834Z,32.17
2022-08-11T12:12:26.943Z,32.30
2022-08-11T12:13:27.064Z,32.40
2022-08-11T12:14:27.234Z,32.47
2022-08-11T12:16:04.424Z,32.48
2022-08-11T12:16:34.074Z,32.48
2022-08-11T12:17:28.572Z,32.56
2022-08-11T12:18:27.643Z,32.59
2022-08-11T12:19:27.832Z,32.53
2022-08-11T12:20:31.791Z,32.50
2022-08-11T12:21:28.985Z,32.49
2022-08-11T12:22:28.086Z,32.42
2022-08-11T12:23:28.196Z,32.28
2022-08-11T12:24:29.434Z,32.24
2022-08-11T12:25:28.442Z,32.24
2022-08-11T12:26:28.542Z,32.15
2022-08-11T12:27:28.729Z,31.96
2022-08-11T12:28:29.154Z,31.81
2022-08-11T12:29:29.017Z,31.81
2022-08-11T12:30:29.050Z,31.80
2022-08-11T12:31:29.212Z,31.75
2022-08-11T12:32:29.358Z,31.71
2022-08-11T12:33:29.474Z,31.64
2022-08-11T12:34:29.511Z,31.61
2022-08-11T12:35:29.671Z,31.60
2022-08-11T12:36:29.799Z,31.61
2022-08-11T12:37:29.924Z,31.68
2022-08-11T12:38:30.137Z,31.72
2022-08-11T12:40:16.575Z,31.68
2022-08-11T12:40:43.782Z,31.60
2022-08-11T12:41:31.487Z,31.56
2022-08-11T12:42:30.507Z,31.60
2022-08-11T12:43:37.284Z,31.69
2022-08-11T12:44:31.700Z,31.74
2022-08-11T12:45:31.002Z,31.78
2022-08-11T12:46:30.940Z,31.77
2022-08-11T12:47:31.090Z,31.72
2022-08-11T12:48:57.580Z,31.64
2022-08-11T12:49:32.330Z,31.63
2022-08-11T12:50:31.598Z,31.63
2022-08-11T12:51:31.542Z,31.58
2022-08-11T12:52:32.672Z,31.60
2022-08-11T12:53:31.768Z,31.73
2022-08-11T12:54:31.881Z,31.85
2022-08-11T12:55:32.080Z,31.77
2022-08-11T12:56:32.108Z,31.66